createdAt,value
2022-11-24T00:01:17.921Z,20.05
2022-11-24T00:03:46.140Z,21.33
2022-11-24T00:06:16.099Z,20.02
2022-11-24T00:08:45.856Z,18.55
2022-11-24T00:11:15.309Z,20.80
2022-11-24T00:13:42.876Z,20.05
2022-11-24T00:16:18.285Z,20.40
2022-11-24T00:18:48.125Z,21.15
2022-11-24T00:21:16.346Z,20.92
2022-11-24T00:23:43.358Z,22.33
2022-11-24T00:26:16.070Z,24.33
2022-11-24T00:28:44.209Z,21.80
2022-11-24T00:31:34.442Z,22.35
2022-11-24T00:34:04.060Z,21.83
2022-11-24T00:36:32.975Z,21.60
2022-11-24T00:39:02.448Z,23.90
2022-11-24T00:41:29.921Z,22.13
2022-11-24T00:43:57.421Z,26.95
2022-11-24T00:46:25.016Z,21.90
2022-11-24T00:48:54.179Z,23.00
2022-11-24T00:51:23.845Z,24.90
2022-11-24T00:53:50.770Z,24.00
2022-11-24T00:56:17.321Z,21.98
2022-11-24T00:58:43.916Z,28.77
2022-11-24T01:01:16.835Z,24.55
2022-11-24T01:03:44.015Z,27.42
2022-11-24T01:06:14.412Z,23.25
2022-11-24T01:08:41.615Z,22.15
2022-11-24T01:11:12.769Z,23.92
2022-11-24T01:13:40.156Z,23.52
2022-11-24T01:16:07.522Z,22.67
2022-11-24T01:18:34.190Z,25.42
2022-11-24T01:21:09.622Z,23.58
2022-11-24T01:23:36.568Z,22.40
2022-11-24T01:26:12.596Z,24.92
2022-11-24T01:28:44.886Z,22.95
2022-11-24T01:31:13.758Z,22.77
2022-11-24T01:33:40.478Z,21.55
2022-11-24T01:36:07.176Z,23.33
2022-11-24T01:38:33.800Z,22.67
2022-11-24T01:41:06.255Z,25.35
2022-11-24T01:43:33.145Z,22.90
2022-11-24T01:46:15.212Z,22.25
2022-11-24T01:48:45.240Z,22.25
2022-11-24T01:51:16.214Z,23.20
2022-11-24T01:53:47.266Z,21.70
2022-11-24T01:56:14.202Z,20.73
2022-11-24T01:58:44.480Z,21.00
2022-11-24T02:01:11.659Z,20.50
2022-11-24T02:03:42.063Z,19.17
2022-11-24T02:06:14.018Z,21.33
2022-11-24T02:08:49.371Z,21.83
2022-11-24T02:11:16.068Z,21.65
2022-11-24T02:13:44.204Z,21.58
2022-11-24T02:16:12.505Z,20.38
2022-11-24T02:18:42.071Z,21.38
2022-11-24T02:21:11.498Z,19.77
2022-11-24T02:23:55.558Z,22.63
2022-11-24T02:26:35.006Z,22.05
2022-11-24T02:29:02.344Z,20.75
2022-11-24T02:31:29.088Z,21.55
2022-11-24T02:33:56.128Z,21.00
2022-11-24T02:36:22.717Z,19.80
2022-11-24T02:38:49.353Z,19.20
2022-11-24T02:41:22.599Z,21.27
2022-11-24T02:43:59.303Z,19.27
2022-11-24T02:46:26.054Z,19.52
2022-11-24T02:48:52.807Z,18.38
2022-11-24T02:51:19.778Z,19.20
2022-11-24T02:53:46.338Z,18.45
2022-11-24T02:56:12.910Z,16.70
2022-11-24T02:58:39.657Z,17.88
2022-11-24T03:01:06.360Z,18.48
2022-11-24T03:03:33.388Z,16.55
2022-11-24T03:06:00.047Z,17.33
2022-11-24T03:08:26.599Z,17.90
2022-11-24T03:10:53.225Z,16.10
2022-11-24T03:13:19.832Z,16.67
2022-11-24T03:15:46.446Z,16.80
2022-11-24T03:18:13.124Z,17.10
2022-11-24T03:20:39.720Z,18.45
2022-11-24T03:23:06.317Z,16.83
2022-11-24T03:25:32.914Z,16.35
2022-11-24T03:27:59.601Z,16.95
2022-11-24T03:30:26.273Z,16.52
2022-11-24T03:32:56.147Z,17.02
2022-11-24T03:35:23.215Z,17.25
2022-11-24T03:37:49.898Z,17.65
2022-11-24T03:40:18.021Z,16.88
2022-11-24T03:42:44.633Z,17.27
2022-11-24T03:45:37.996Z,15.82
2022-11-24T03:47:57.995Z,17.90
2022-11-24T03:50:24.609Z,15.32
2022-11-24T03:52:51.223Z,16.13
2022-11-24T03:55:17.826Z,17.23
2022-11-24T03:57:44.443Z,16.08
2022-11-24T04:00:11.953Z,15.65
2022-11-24T04:02:38.838Z,17.63
2022-11-24T04:05:06.234Z,17.08
2022-11-24T04:07:32.888Z,16.92
2022-11-24T04:09:59.557Z,17.27
2022-11-24T04:12:44.723Z,19.27
2022-11-24T04:15:14.078Z,16.33
2022-11-24T04:17:41.077Z,15.57
2022-11-24T04:20:08.569Z,17.63
2022-11-24T04:22:35.906Z,18.27
2022-11-24T04:25:03.689Z,18.10
2022-11-24T04:27:30.621Z,18.67
2022-11-24T04:29:57.246Z,17.67
2022-11-24T04:32:23.830Z,18.35
2022-11-24T04:34:50.438Z,18.40
2022-11-24T04:37:17.055Z,19.30
2022-11-24T04:39:44.000Z,17.13
2022-11-24T04:42:10.584Z,18.77
2022-11-24T04:44:37.378Z,17.92
2022-11-24T04:47:04.234Z,16.92
2022-11-24T04:49:30.871Z,18.30
2022-11-24T04:51:57.505Z,19.55
2022-11-24T04:54:24.149Z,21.25
2022-11-24T04:56:52.129Z,18.30
2022-11-24T04:59:19.918Z,19.10
2022-11-24T05:01:47.401Z,18.67
2022-11-24T05:04:15.976Z,18.58
2022-11-24T05:06:42.663Z,19.90
2022-11-24T05:09:13.591Z,19.17
2022-11-24T05:11:40.138Z,18.20
2022-11-24T05:14:06.778Z,18.92
2022-11-24T05:16:33.454Z,16.80
2022-11-24T05:19:00.127Z,17.35
2022-11-24T05:21:28.076Z,18.40
2022-11-24T05:23:54.642Z,19.23
2022-11-24T05:26:21.563Z,19.92
2022-11-24T05:28:48.162Z,21.25
2022-11-24T05:31:14.737Z,20.10
2022-11-24T05:33:43.372Z,18.67
2022-11-24T05:36:30.356Z,20.05
2022-11-24T05:38:57.226Z,18.48
2022-11-24T05:41:23.867Z,20.35
2022-11-24T05:43:50.489Z,20.35
2022-11-24T05:46:17.301Z,19.02
2022-11-24T05:48:44.035Z,21.33
2022-11-24T05:51:10.659Z,17.77
2022-11-24T05:53:37.227Z,18.73
2022-11-24T05:56:04.411Z,17.83
2022-11-24T05:58:31.043Z,16.50
2022-11-24T06:00:57.583Z,18.02
2022-11-24T06:03:24.175Z,17.20
2022-11-24T06:05:50.802Z,17.50
2022-11-24T06:08:17.399Z,16.42
2022-11-24T06:10:43.974Z,18.42
2022-11-24T06:13:10.632Z,17.17
2022-11-24T06:15:37.848Z,18.77
2022-11-24T06:18:04.662Z,18.60
2022-11-24T06:20:32.910Z,18.42
2022-11-24T06:23:00.231Z,19.00
2022-11-24T06:25:27.162Z,20.48
2022-11-24T06:27:53.718Z,17.38
2022-11-24T06:30:20.308Z,18.55
2022-11-24T06:32:49.647Z,18.60
2022-11-24T06:35:16.989Z,19.70
2022-11-24T06:37:43.655Z,17.20
2022-11-24T06:40:10.513Z,18.70
2022-11-24T06:42:37.721Z,20.25
2022-11-24T06:45:09.035Z,17.67
2022-11-24T06:47:36.723Z,18.95
2022-11-24T06:50:03.664Z,18.25
2022-11-24T06:52:30.217Z,19.38
2022-11-24T06:54:57.349Z,18.48
2022-11-24T06:57:24.050Z,23.13
2022-11-24T06:59:50.786Z,20.55
2022-11-24T07:02:17.319Z,21.73
2022-11-24T07:04:43.913Z,21.38
2022-11-24T07:07:10.603Z,20.55
2022-11-24T07:09:37.212Z,18.65
2022-11-24T07:12:04.947Z,19.60
2022-11-24T07:14:32.302Z,20.05
2022-11-24T07:16:59.086Z,24.67
2022-11-24T07:19:25.731Z,19.80
2022-11-24T07:21:52.327Z,19.67
2022-11-24T07:24:19.001Z,22.75
2022-11-24T07:26:45.781Z,20.83
2022-11-24T07:29:12.346Z,21.15
2022-11-24T07:31:39.217Z,20.42
2022-11-24T07:34:06.363Z,20.95
2022-11-24T07:36:32.895Z,20.23
2022-11-24T07:38:59.759Z,20.80
2022-11-24T07:41:26.448Z,21.98
2022-11-24T07:43:53.172Z,21.30
2022-11-24T07:46:20.725Z,20.60
2022-11-24T07:48:47.451Z,23.15
2022-11-24T07:51:14.372Z,22.75
2022-11-24T07:53:40.918Z,22.75
2022-11-24T07:56:09.099Z,22.83
2022-11-24T07:58:37.129Z,21.77
2022-11-24T08:01:15.152Z,22.70
2022-11-24T08:03:43.050Z,23.30
2022-11-24T08:06:30.118Z,21.85
2022-11-24T08:08:57.931Z,22.75
2022-11-24T08:11:25.268Z,22.58
2022-11-24T08:13:52.129Z,20.08
2022-11-24T08:16:20.126Z,22.05
2022-11-24T08:18:55.199Z,22.25
2022-11-24T08:23:50.199Z,16.90
2022-11-24T08:26:19.325Z,22.15
2022-11-24T08:28:47.186Z,18.60
2022-11-24T08:31:16.486Z,21.00
2022-11-24T08:33:43.473Z,19.55
2022-11-24T08:36:13.045Z,21.60
2022-11-24T08:38:39.638Z,20.02
2022-11-24T08:41:09.103Z,19.55
2022-11-24T08:43:35.830Z,23.13
2022-11-24T08:46:05.415Z,20.92
2022-11-24T08:48:32.915Z,22.85
2022-11-24T08:51:06.123Z,19.13
2022-11-24T08:53:32.717Z,20.10
2022-11-24T08:56:00.587Z,20.23
2022-11-24T08:58:29.189Z,19.15
2022-11-24T09:00:56.050Z,20.30
2022-11-24T09:03:22.802Z,17.50
2022-11-24T09:05:52.111Z,17.98
2022-11-24T09:08:19.269Z,17.00
2022-11-24T09:10:45.830Z,19.40
2022-11-24T09:13:12.591Z,18.25
2022-11-24T09:15:39.166Z,19.20
2022-11-24T09:18:05.749Z,18.40
2022-11-24T09:20:32.342Z,16.83
2022-11-24T09:22:58.951Z,17.27
2022-11-24T09:25:25.618Z,17.25
2022-11-24T09:27:52.481Z,17.25
2022-11-24T09:30:19.190Z,17.02
2022-11-24T09:32:45.809Z,16.17
2022-11-24T09:35:12.393Z,16.45
2022-11-24T09:37:39.063Z,17.70
2022-11-24T09:40:06.271Z,18.48
2022-11-24T09:42:38.703Z,16.85
2022-11-24T09:45:05.606Z,17.42
2022-11-24T09:47:47.532Z,18.63
2022-11-24T09:50:19.355Z,20.10
2022-11-24T09:53:01.104Z,19.35
2022-11-24T09:55:50.061Z,17.90
2022-11-24T09:58:50.901Z,16.90
2022-11-24T10:01:21.384Z,17.27
2022-11-24T10:03:51.075Z,19.45
2022-11-24T10:06:31.594Z,18.13
2022-11-24T10:09:13.265Z,16.33
2022-11-24T10:11:50.702Z,16.55
2022-11-24T10:14:26.995Z,16.20
2022-11-24T10:17:19.307Z,16.02
2022-11-24T10:20:20.376Z,16.20
2022-11-24T10:23:11.388Z,14.63
2022-11-24T10:25:58.224Z,16.90
2022-11-24T10:28:49.110Z,15.90
2022-11-24T10:31:31.395Z,16.50
2022-11-24T10:34:05.888Z,15.95
2022-11-24T10:36:47.357Z,16.38
2022-11-24T10:39:23.839Z,16.45
2022-11-24T10:41:56.633Z,16.85
2022-11-24T10:44:23.448Z,17.13
2022-11-24T10:46:50.736Z,14.07
2022-11-24T10:49:36.075Z,15.38
2022-11-24T10:52:11.838Z,15.90
2022-11-24T10:54:58.094Z,17.35
2022-11-24T10:57:30.594Z,16.80
2022-11-24T10:59:57.423Z,14.88
2022-11-24T11:02:39.420Z,15.27
2022-11-24T11:05:24.118Z,14.88
2022-11-24T11:07:51.007Z,15.20
2022-11-24T11:10:22.087Z,15.32
2022-11-24T11:12:49.085Z,15.77
2022-11-24T11:15:29.955Z,16.23
2022-11-24T11:18:01.201Z,14.25
2022-11-24T11:20:32.555Z,15.23
2022-11-24T11:23:03.344Z,14.63
2022-11-24T11:25:34.200Z,14.07
2022-11-24T11:28:19.693Z,14.30
2022-11-24T11:31:17.393Z,13.20
2022-11-24T11:34:05.518Z,14.50
2022-11-24T11:36:39.375Z,13.23
2022-11-24T11:39:06.564Z,13.35
2022-11-24T11:41:37.012Z,13.93
2022-11-24T11:44:38.779Z,13.98
2022-11-24T11:47:36.181Z,13.93
2022-11-24T11:50:05.658Z,14.27
2022-11-24T11:53:03.247Z,15.10
2022-11-24T11:55:32.806Z,15.85
2022-11-24T11:58:12.557Z,14.57
2022-11-24T12:00:46.933Z,13.80
2022-11-24T12:03:33.552Z,14.77
2022-11-24T12:06:24.961Z,14.13
2022-11-24T12:09:23.714Z,17.15
2022-11-24T12:12:23.445Z,15.30
2022-11-24T12:14:59.507Z,15.45
2022-11-24T12:17:40.211Z,15.73
2022-11-24T12:20:41.462Z,16.10
2022-11-24T12:23:32.316Z,16.75
2022-11-24T12:26:28.529Z,16.20
2022-11-24T12:29:20.314Z,15.55
2022-11-24T12:32:05.996Z,15.27
2022-11-24T12:35:09.444Z,15.73
2022-11-24T12:37:56.248Z,16.95
2022-11-24T12:41:06.411Z,17.88
2022-11-24T12:43:50.293Z,16.05
2022-11-24T12:46:26.753Z,16.00
2022-11-24T12:49:24.112Z,15.55
2022-11-24T12:52:01.506Z,16.15
2022-11-24T12:54:38.244Z,16.65
2022-11-24T12:57:34.361Z,17.17
2022-11-24T13:00:08.786Z,16.95
2022-11-24T13:02:52.295Z,16.05
2022-11-24T13:05:33.280Z,16.35
2022-11-24T13:08:05.498Z,16.38
2022-11-24T13:10:59.101Z,15.77
2022-11-24T13:14:00.690Z,15.23
2022-11-24T13:16:40.818Z,16.88
2022-11-24T13:19:22.584Z,17.27
2022-11-24T13:22:12.079Z,17.50
2022-11-24T13:24:41.296Z,16.42
2022-11-24T13:27:13.865Z,16.63
2022-11-24T13:29:43.274Z,16.20
2022-11-24T13:32:11.733Z,17.38
2022-11-24T13:34:43.047Z,16.05
2022-11-24T13:37:35.802Z,17.77
2022-11-24T13:40:22.911Z,18.58
2022-11-24T13:43:01.615Z,17.27
2022-11-24T13:45:40.951Z,17.48
2022-11-24T13:48:20.817Z,16.98
2022-11-24T13:50:51.766Z,18.20
2022-11-24T13:53:30.172Z,16.42
2022-11-24T13:56:21.775Z,16.98
2022-11-24T13:58:51.814Z,18.25
2022-11-24T14:01:23.748Z,19.77
2022-11-24T14:04:30.576Z,18.58
2022-11-24T14:07:08.701Z,16.58
2022-11-24T14:09:48.243Z,16.90
2022-11-24T14:12:20.667Z,15.65
2022-11-24T14:15:20.931Z,18.60
2022-11-24T14:17:47.716Z,18.45
2022-11-24T14:20:25.430Z,16.27
2022-11-24T14:22:52.483Z,17.35
2022-11-24T14:25:21.020Z,17.38
2022-11-24T14:27:50.374Z,17.45
2022-11-24T14:30:21.472Z,18.30
2022-11-24T14:33:03.074Z,18.20
2022-11-24T14:35:35.733Z,18.50
2022-11-24T14:38:04.847Z,17.45
2022-11-24T14:40:37.754Z,18.55
2022-11-24T14:43:08.524Z,18.42
2022-11-24T14:45:35.432Z,16.30
2022-11-24T14:48:02.103Z,19.00
2022-11-24T14:50:29.039Z,17.25
2022-11-24T14:52:59.832Z,20.23
2022-11-24T14:55:35.382Z,19.15
2022-11-24T14:58:02.203Z,19.90
2022-11-24T15:00:31.741Z,18.73
2022-11-24T15:03:01.304Z,20.42
2022-11-24T15:05:59.358Z,19.38
2022-11-24T15:08:36.433Z,21.10
2022-11-24T15:11:09.261Z,19.75
2022-11-24T15:13:40.785Z,18.52
2022-11-24T15:16:20.821Z,19.52
2022-11-24T15:18:56.955Z,18.63
2022-11-24T15:21:37.352Z,19.42
2022-11-24T15:24:18.594Z,17.98
2022-11-24T15:26:46.859Z,17.90
2022-11-24T15:29:14.048Z,19.60
2022-11-24T15:31:43.316Z,18.27
2022-11-24T15:34:15.782Z,19.38
2022-11-24T15:36:42.573Z,19.42
2022-11-24T15:39:09.686Z,19.42
2022-11-24T15:41:37.543Z,18.73
2022-11-24T15:44:04.844Z,18.92
2022-11-24T15:46:38.443Z,20.75
2022-11-24T15:49:06.193Z,20.08
2022-11-24T15:51:33.674Z,19.33
2022-11-24T15:54:01.552Z,19.83
2022-11-24T15:56:34.180Z,19.33
2022-11-24T15:59:02.337Z,19.15
2022-11-24T16:01:32.879Z,19.52
2022-11-24T16:04:01.063Z,18.88
2022-11-24T16:06:27.935Z,18.55
2022-11-24T16:08:54.900Z,18.92
2022-11-24T16:11:22.942Z,19.52
2022-11-24T16:13:53.041Z,17.58
2022-11-24T16:16:24.201Z,18.00
2022-11-24T16:18:50.985Z,17.25
2022-11-24T16:21:18.122Z,18.20
2022-11-24T16:23:46.176Z,17.52
2022-11-24T16:26:12.938Z,16.17
2022-11-24T16:28:39.679Z,17.17
2022-11-24T16:31:06.421Z,16.55
2022-11-24T16:33:33.107Z,18.58
2022-11-24T16:36:02.397Z,16.55
2022-11-24T16:38:29.910Z,17.27
2022-11-24T16:40:57.123Z,15.43
2022-11-24T16:43:27.008Z,16.88
2022-11-24T16:46:21.498Z,17.45
2022-11-24T16:48:50.532Z,16.98
2022-11-24T16:51:18.388Z,17.05
2022-11-24T16:53:45.785Z,16.38
2022-11-24T16:56:14.492Z,18.50
2022-11-24T16:58:41.232Z,16.45
2022-11-24T17:01:11.258Z,17.98
2022-11-24T17:03:38.794Z,19.08
2022-11-24T17:06:08.886Z,18.33
2022-11-24T17:08:37.941Z,16.85
2022-11-24T17:11:08.950Z,18.52
2022-11-24T17:13:35.786Z,18.05
2022-11-24T17:16:07.304Z,17.13
2022-11-24T17:18:37.389Z,15.95
2022-11-24T17:21:09.585Z,17.40
2022-11-24T17:23:38.219Z,17.02
2022-11-24T17:26:08.054Z,16.85
2022-11-24T17:28:37.909Z,16.38
2022-11-24T17:31:25.345Z,15.88
2022-11-24T17:33:54.841Z,18.55
2022-11-24T17:36:24.142Z,17.83
2022-11-24T17:38:51.276Z,17.48
2022-11-24T17:41:22.282Z,18.55
2022-11-24T17:43:51.269Z,18.05
2022-11-24T17:46:18.759Z,18.15
2022-11-24T17:48:48.328Z,16.73
2022-11-24T17:51:19.490Z,17.85
2022-11-24T17:53:49.560Z,19.67
2022-11-24T17:56:24.662Z,21.35
2022-11-24T17:58:56.744Z,18.80
2022-11-24T18:01:24.085Z,19.63
2022-11-24T18:03:53.610Z,18.85
2022-11-24T18:06:24.207Z,20.38
2022-11-24T18:08:51.773Z,18.05
2022-11-24T18:11:31.000Z,19.90
2022-11-24T18:14:03.674Z,18.50
2022-11-24T18:16:35.721Z,19.52
2022-11-24T18:19:09.955Z,19.45
2022-11-24T18:21:40.932Z,18.90
2022-11-24T18:24:12.077Z,20.15
2022-11-24T18:26:44.324Z,18.27
2022-11-24T18:29:12.323Z,17.55
2022-11-24T18:31:39.279Z,16.95
2022-11-24T18:34:07.312Z,20.08
2022-11-24T18:36:35.148Z,18.58
2022-11-24T18:39:06.420Z,16.63
2022-11-24T18:41:33.505Z,18.10
2022-11-24T18:44:03.481Z,17.73
2022-11-24T18:46:30.181Z,20.30
2022-11-24T18:48:57.595Z,18.70
2022-11-24T18:51:24.348Z,19.75
2022-11-24T18:53:58.186Z,16.95
2022-11-24T18:56:25.723Z,16.53
2022-11-24T18:58:56.053Z,21.65
2022-11-24T19:01:28.239Z,16.83
2022-11-24T19:03:58.706Z,19.70
2022-11-24T19:06:37.224Z,16.80
2022-11-24T19:09:11.390Z,16.95
2022-11-24T19:11:41.131Z,17.65
2022-11-24T19:14:11.313Z,17.25
2022-11-24T19:16:38.345Z,15.43
2022-11-24T19:19:05.777Z,17.73
2022-11-24T19:21:34.727Z,16.02
2022-11-24T19:24:05.268Z,18.00
2022-11-24T19:26:37.732Z,16.92
2022-11-24T19:29:05.775Z,16.48
2022-11-24T19:31:35.881Z,19.70
2022-11-24T19:34:03.718Z,17.15
2022-11-24T19:36:30.969Z,17.60
2022-11-24T19:38:58.983Z,16.02
2022-11-24T19:41:28.562Z,17.15
2022-11-24T19:43:55.824Z,16.70
2022-11-24T19:46:27.174Z,16.92
2022-11-24T19:48:57.349Z,17.30
2022-11-24T19:51:30.992Z,17.83
2022-11-24T19:53:58.215Z,16.95
2022-11-24T19:56:27.683Z,18.63
2022-11-24T19:58:55.556Z,15.90
2022-11-24T20:01:27.274Z,16.35
2022-11-24T20:03:58.838Z,16.27
2022-11-24T20:06:28.000Z,16.55
2022-11-24T20:08:55.064Z,16.08
2022-11-24T20:11:22.379Z,16.58
2022-11-24T20:13:49.979Z,16.15
2022-11-24T20:16:20.122Z,14.50
2022-11-24T20:18:47.829Z,15.90
2022-11-24T20:21:17.966Z,16.13
2022-11-24T20:23:46.822Z,14.35
2022-11-24T20:26:19.909Z,15.52
2022-11-24T20:28:47.465Z,16.23
2022-11-24T20:31:20.208Z,15.20
2022-11-24T20:33:47.605Z,15.43
2022-11-24T20:36:16.862Z,15.15
2022-11-24T20:38:44.747Z,16.55
2022-11-24T20:41:16.951Z,15.23
2022-11-24T20:43:44.478Z,15.85
2022-11-24T20:46:22.701Z,16.27
2022-11-24T20:48:49.729Z,15.82
2022-11-24T20:51:26.375Z,16.40
2022-11-24T20:53:56.820Z,16.67
2022-11-24T20:56:36.805Z,17.45
2022-11-24T20:59:04.774Z,16.95
2022-11-24T21:01:40.225Z,17.25
2022-11-24T21:04:09.939Z,18.02
2022-11-24T21:06:37.707Z,17.70
2022-11-24T21:09:05.974Z,16.85
2022-11-24T21:11:32.930Z,16.10
2022-11-24T21:14:00.373Z,16.83
2022-11-24T21:16:32.748Z,17.92
2022-11-24T21:19:03.912Z,15.77
2022-11-24T21:21:34.855Z,16.42
2022-11-24T21:24:07.509Z,19.00
2022-11-24T21:26:39.646Z,16.75
2022-11-24T21:29:08.322Z,17.58
2022-11-24T21:31:39.906Z,17.20
2022-11-24T21:34:07.665Z,18.10
2022-11-24T21:36:40.803Z,16.58
2022-11-24T21:39:07.677Z,16.52
2022-11-24T21:41:34.746Z,18.17
2022-11-24T21:44:03.046Z,16.30
2022-11-24T21:46:38.958Z,17.40
2022-11-24T21:49:09.337Z,18.42
2022-11-24T21:51:35.975Z,18.27
2022-11-24T21:54:05.279Z,16.25
2022-11-24T21:56:32.203Z,17.88
2022-11-24T21:58:58.911Z,17.55
2022-11-24T22:01:28.307Z,18.08
2022-11-24T22:03:57.645Z,17.15
2022-11-24T22:06:24.451Z,17.00
2022-11-24T22:08:51.533Z,16.55
2022-11-24T22:11:23.610Z,17.60
2022-11-24T22:13:51.460Z,15.43
2022-11-24T22:16:23.753Z,15.90
2022-11-24T22:18:51.092Z,15.85
2022-11-24T22:21:22.580Z,16.98
2022-11-24T22:23:54.836Z,16.48
2022-11-24T22:26:23.044Z,16.42
2022-11-24T22:28:52.422Z,16.08
2022-11-24T22:31:21.322Z,17.15
2022-11-24T22:33:48.854Z,17.33
2022-11-24T22:36:18.935Z,16.45
2022-11-24T22:38:47.145Z,16.45
2022-11-24T22:41:17.414Z,18.45
2022-11-24T22:43:45.560Z,16.92
2022-11-24T22:46:14.843Z,16.75
2022-11-24T22:48:42.440Z,16.08
2022-11-24T22:51:17.754Z,17.77
2022-11-24T22:53:52.420Z,17.25
2022-11-24T22:56:19.931Z,17.05
2022-11-24T22:58:47.411Z,15.82
2022-11-24T23:01:20.506Z,16.58
2022-11-24T23:03:48.965Z,16.10
2022-11-24T23:06:28.181Z,15.35
2022-11-24T23:08:55.519Z,17.48
2022-11-24T23:11:30.743Z,16.83
2022-11-24T23:14:03.008Z,16.60
2022-11-24T23:16:30.767Z,17.55
2022-11-24T23:18:59.216Z,16.85
2022-11-24T23:21:31.305Z,16.75
2022-11-24T23:24:03.310Z,17.00
2022-11-24T23:26:34.474Z,16.77
2022-11-24T23:29:02.276Z,17.60
2022-11-24T23:31:29.486Z,17.10
2022-11-24T23:33:58.421Z,17.25
2022-11-24T23:36:25.424Z,17.35
2022-11-24T23:38:52.111Z,17.08
2022-11-24T23:41:22.925Z,17.48
2022-11-24T23:43:50.788Z,16.15
2022-11-24T23:46:20.613Z,16.23
2022-11-24T23:48:49.602Z,15.82
2022-11-24T23:51:18.888Z,16.20
2022-11-24T23:53:46.081Z,17.23
2022-11-24T23:56:16.602Z,16.85
2022-11-24T23:58:43.732Z,14.95
